logo
Search for airport 
image banner adimage banner adimage banner ad
image banner ad

FARS - Robertson

Located in Ashton, South Africa

ICAO - FARS, IATA - ROD

Data provided by Airmate  

General information

Coordinates: S33°48'39" E19°54'36"
Elevation is 640 feet MSL.
 
Rated:
View ratings:
[VIEW]
View others Airports in Western Cape

Operational data

Special qualification required
Current time UTC:
Current local time:
Weather at : - ( 0 km )
METAR: KXER 232005Z AUTO 21010G15KT 4SM BR 27/25 A3009 RMK A01
View NOTAMs / SUP AIP / TFR affecting this airport [VIEW]
Communications frequencies: [VIEW]

Runways:

RWY identifierQFULength (ft)Width (ft)SurfaceLDA (ft)
1080°492149ASP
28260°492149ASP
14113°239559GVL
32293°239559GVL

Airport contact information

Address: Ashton South Africa

Satellite view of FARS